createdAt,value
2018-12-05T00:02:02.158Z,8.25
2018-12-05T00:04:30.331Z,8.40
2018-12-05T00:06:58.521Z,8.00
2018-12-05T00:09:26.685Z,8.98
2018-12-05T00:11:54.911Z,8.83
2018-12-05T00:14:25.826Z,8.90
2018-12-05T00:16:54.050Z,9.75
2018-12-05T00:19:22.245Z,8.53
2018-12-05T00:21:50.393Z,8.48
2018-12-05T00:24:18.602Z,7.92
2018-12-05T00:26:46.854Z,9.40
2018-12-05T00:29:15.228Z,8.00
2018-12-05T00:31:43.570Z,9.65
2018-12-05T00:34:11.822Z,9.90
2018-12-05T00:36:40.102Z,7.62
2018-12-05T00:39:09.450Z,8.73
2018-12-05T00:41:37.611Z,8.00
2018-12-05T00:44:06.094Z,8.95
2018-12-05T00:46:34.439Z,9.08
2018-12-05T00:49:02.608Z,8.28
2018-12-05T00:51:30.807Z,7.65
2018-12-05T00:53:59.006Z,7.58
2018-12-05T00:56:27.252Z,9.33
2018-12-05T00:58:55.420Z,7.90
2018-12-05T01:01:24.955Z,7.75
2018-12-05T01:03:53.553Z,8.03
2018-12-05T01:06:22.042Z,8.70
2018-12-05T01:08:50.323Z,7.78
2018-12-05T01:11:18.655Z,9.28
2018-12-05T01:13:46.870Z,7.42
2018-12-05T01:16:15.101Z,6.80
2018-12-05T01:18:43.427Z,8.28
2018-12-05T01:21:11.872Z,7.55
2018-12-05T01:23:40.124Z,7.42
2018-12-05T01:26:09.033Z,6.20
2018-12-05T01:28:37.291Z,7.80
2018-12-05T01:31:05.494Z,7.28
2018-12-05T01:33:33.761Z,8.43
2018-12-05T01:36:01.933Z,7.12
2018-12-05T01:38:30.379Z,6.53
2018-12-05T01:40:58.620Z,7.50
2018-12-05T01:43:31.072Z,6.22
2018-12-05T01:45:59.254Z,6.47
2018-12-05T01:48:27.462Z,5.97
2018-12-05T01:50:55.640Z,8.23
2018-12-05T01:53:23.835Z,6.33
2018-12-05T01:55:52.029Z,4.85
2018-12-05T01:58:20.242Z,6.20
2018-12-05T02:00:48.507Z,5.55
2018-12-05T02:03:16.719Z,5.50
2018-12-05T02:05:44.944Z,6.40
2018-12-05T02:08:13.134Z,6.37
2018-12-05T02:10:41.367Z,5.35
2018-12-05T02:13:09.557Z,6.60
2018-12-05T02:15:37.720Z,5.47
2018-12-05T02:18:05.972Z,5.30
2018-12-05T02:20:34.169Z,6.10
2018-12-05T02:23:02.403Z,6.03
2018-12-05T02:25:30.608Z,6.30
2018-12-05T02:27:58.778Z,6.92
2018-12-05T02:30:27.096Z,6.17
2018-12-05T02:32:55.364Z,5.55
2018-12-05T02:35:23.659Z,6.05
2018-12-05T02:37:51.917Z,4.85
2018-12-05T02:40:20.085Z,6.08
2018-12-05T02:42:48.265Z,4.78
2018-12-05T02:45:16.462Z,5.53
2018-12-05T02:47:44.723Z,6.72
2018-12-05T02:50:12.996Z,5.47
2018-12-05T02:52:41.264Z,5.85
2018-12-05T02:55:09.516Z,5.55
2018-12-05T02:57:37.720Z,5.25
2018-12-05T03:00:06.639Z,5.78
2018-12-05T03:02:34.888Z,5.15
2018-12-05T03:05:03.798Z,4.90
2018-12-05T03:07:31.981Z,6.22
2018-12-05T03:10:00.235Z,5.25
2018-12-05T03:12:28.457Z,6.08
2018-12-05T03:14:56.611Z,5.92
2018-12-05T03:17:24.867Z,6.58
2018-12-05T03:19:53.036Z,7.83
2018-12-05T03:22:21.391Z,7.75
2018-12-05T03:24:49.647Z,6.58
2018-12-05T03:27:17.810Z,7.47
2018-12-05T03:29:46.086Z,6.22
2018-12-05T03:32:14.347Z,8.10
2018-12-05T03:34:42.585Z,4.62
2018-12-05T03:37:10.731Z,6.25
2018-12-05T03:39:39.028Z,4.97
2018-12-05T03:42:07.391Z,5.03
2018-12-05T03:44:35.736Z,5.53
2018-12-05T03:47:04.087Z,6.35
2018-12-05T03:49:32.322Z,4.78
2018-12-05T03:52:00.566Z,4.53
2018-12-05T03:54:28.884Z,5.22
2018-12-05T03:56:57.104Z,5.87
2018-12-05T03:59:25.284Z,5.75
2018-12-05T04:01:53.570Z,5.33
2018-12-05T04:04:21.758Z,6.42
2018-12-05T04:06:49.980Z,5.47
2018-12-05T04:09:18.174Z,6.75
2018-12-05T04:11:46.347Z,6.85
2018-12-05T04:14:14.534Z,5.75
2018-12-05T04:16:42.755Z,5.15
2018-12-05T04:19:10.973Z,5.97
2018-12-05T04:21:39.139Z,4.45
2018-12-05T04:24:07.340Z,5.12
2018-12-05T04:26:35.570Z,7.10
2018-12-05T04:29:03.934Z,6.37
2018-12-05T04:31:32.100Z,4.60
2018-12-05T04:34:00.303Z,5.97
2018-12-05T04:36:28.538Z,5.90
2018-12-05T04:38:56.704Z,4.50
2018-12-05T04:41:24.976Z,4.35
2018-12-05T04:43:53.221Z,5.12
2018-12-05T04:46:21.399Z,6.10
2018-12-05T04:48:49.635Z,5.65
2018-12-05T04:51:17.796Z,4.83
2018-12-05T04:53:46.043Z,5.65
2018-12-05T04:56:14.298Z,4.95
2018-12-05T04:58:42.510Z,4.75
2018-12-05T05:01:10.714Z,5.00
2018-12-05T05:03:38.883Z,4.40
2018-12-05T05:06:07.114Z,4.90
2018-12-05T05:08:35.380Z,5.35
2018-12-05T05:11:03.562Z,5.70
2018-12-05T05:13:31.797Z,4.83
2018-12-05T05:16:00.031Z,5.62
2018-12-05T05:18:28.206Z,5.40
2018-12-05T05:20:56.455Z,5.28
2018-12-05T05:23:24.647Z,4.90
2018-12-05T05:25:52.801Z,4.62
2018-12-05T05:28:20.973Z,4.85
2018-12-05T05:30:49.119Z,5.40
2018-12-05T05:33:17.424Z,5.42
2018-12-05T05:35:45.624Z,5.40
2018-12-05T05:38:13.882Z,6.35
2018-12-05T05:40:42.122Z,5.83
2018-12-05T05:43:10.451Z,5.65
2018-12-05T05:45:38.614Z,5.35
2018-12-05T05:48:06.989Z,6.17
2018-12-05T05:50:35.280Z,6.20
2018-12-05T05:53:03.599Z,6.72
2018-12-05T05:55:31.761Z,6.80
2018-12-05T05:57:59.960Z,5.62
2018-12-05T06:00:28.243Z,6.33
2018-12-05T06:02:56.434Z,6.05
2018-12-05T06:05:24.685Z,6.72
2018-12-05T06:07:52.855Z,5.50
2018-12-05T06:10:21.216Z,5.55
2018-12-05T06:12:49.397Z,7.25
2018-12-05T06:15:17.571Z,4.78
2018-12-05T06:17:45.753Z,5.37
2018-12-05T06:20:13.903Z,5.90
2018-12-05T06:22:42.087Z,6.55
2018-12-05T06:25:10.240Z,5.00
2018-12-05T06:27:38.501Z,4.42
2018-12-05T06:30:07.559Z,4.47
2018-12-05T06:32:35.781Z,7.20
2018-12-05T06:35:04.086Z,5.10
2018-12-05T06:37:32.280Z,5.17
2018-12-05T06:40:00.458Z,5.60
2018-12-05T06:42:28.819Z,4.08
2018-12-05T06:44:57.011Z,5.85
2018-12-05T06:47:25.231Z,6.25
2018-12-05T06:49:53.550Z,5.20
2018-12-05T06:52:21.715Z,5.53
2018-12-05T06:54:50.725Z,5.90
2018-12-05T06:57:18.946Z,5.85
2018-12-05T06:59:47.205Z,6.40
2018-12-05T07:02:15.405Z,6.15
2018-12-05T07:04:43.588Z,5.83
2018-12-05T07:07:11.769Z,5.22
2018-12-05T07:09:40.343Z,4.92
2018-12-05T07:12:08.887Z,5.12
2018-12-05T07:14:37.106Z,5.05
2018-12-05T07:17:05.323Z,5.00
2018-12-05T07:19:33.678Z,6.08
2018-12-05T07:22:01.937Z,4.03
2018-12-05T07:24:30.181Z,4.45
2018-12-05T07:26:58.356Z,5.15
2018-12-05T07:29:26.658Z,5.05
2018-12-05T07:31:54.954Z,4.72
2018-12-05T07:34:23.227Z,4.35
2018-12-05T07:36:51.462Z,4.60
2018-12-05T07:39:19.630Z,4.10
2018-12-05T07:41:47.823Z,3.98
2018-12-05T07:44:15.999Z,4.30
2018-12-05T07:46:44.183Z,5.55
2018-12-05T07:49:12.414Z,4.85
2018-12-05T07:51:40.673Z,3.77
2018-12-05T07:54:09.090Z,4.17
2018-12-05T07:56:37.291Z,5.22
2018-12-05T07:59:05.670Z,3.80
2018-12-05T08:01:33.895Z,5.33
2018-12-05T08:04:02.144Z,4.92
2018-12-05T08:06:30.343Z,4.40
2018-12-05T08:08:58.514Z,4.95
2018-12-05T08:11:26.731Z,5.20
2018-12-05T08:13:54.921Z,5.00
2018-12-05T08:16:23.175Z,5.22
2018-12-05T08:18:51.378Z,4.50
2018-12-05T08:21:19.612Z,4.20
2018-12-05T08:23:47.809Z,4.58
2018-12-05T08:26:16.202Z,6.17
2018-12-05T08:28:44.358Z,4.45
2018-12-05T08:31:12.695Z,3.65
2018-12-05T08:33:40.862Z,4.42
2018-12-05T08:36:09.097Z,4.20
2018-12-05T08:38:37.310Z,5.47
2018-12-05T08:41:05.602Z,4.85
2018-12-05T08:43:33.868Z,5.75
2018-12-05T08:46:02.061Z,5.75
2018-12-05T08:48:30.244Z,4.75
2018-12-05T08:50:59.055Z,6.50
2018-12-05T08:53:27.272Z,5.00
2018-12-05T08:55:55.471Z,5.80
2018-12-05T08:58:23.724Z,5.25
2018-12-05T09:00:51.976Z,5.45
2018-12-05T09:03:20.156Z,5.85
2018-12-05T09:05:48.350Z,5.87
2018-12-05T09:08:16.510Z,5.80
2018-12-05T09:10:44.711Z,6.75
2018-12-05T09:13:12.877Z,4.70
2018-12-05T09:15:41.144Z,5.75
2018-12-05T09:18:09.424Z,4.80
2018-12-05T09:20:37.622Z,4.92
2018-12-05T09:23:05.942Z,5.53
2018-12-05T09:25:34.384Z,6.83
2018-12-05T09:28:02.576Z,5.33
2018-12-05T09:30:30.874Z,5.47
2018-12-05T09:32:59.097Z,5.28
2018-12-05T09:35:27.327Z,5.50
2018-12-05T09:37:55.596Z,5.83
2018-12-05T09:40:23.839Z,5.00
2018-12-05T09:42:52.051Z,6.92
2018-12-05T09:45:20.410Z,6.85
2018-12-05T09:47:48.818Z,7.72
2018-12-05T09:50:17.065Z,7.03
2018-12-05T09:52:45.318Z,7.10
2018-12-05T09:55:13.478Z,8.20
2018-12-05T09:57:41.697Z,6.95
2018-12-05T10:00:10.674Z,7.33
2018-12-05T10:02:38.884Z,7.65
2018-12-05T10:05:08.009Z,7.55
2018-12-05T10:07:36.418Z,7.72
2018-12-05T10:10:06.421Z,7.62
2018-12-05T10:12:34.630Z,6.05
2018-12-05T10:15:03.325Z,7.08
2018-12-05T10:17:31.612Z,6.42
2018-12-05T10:19:59.953Z,7.08
2018-12-05T10:22:28.143Z,7.17
2018-12-05T10:24:56.341Z,7.08
2018-12-05T10:27:24.640Z,7.75
2018-12-05T10:29:52.838Z,7.37
2018-12-05T10:32:21.056Z,8.08
2018-12-05T10:34:49.401Z,6.67
2018-12-05T10:37:17.588Z,8.20
2018-12-05T10:39:45.974Z,9.60
2018-12-05T10:42:14.320Z,8.73
2018-12-05T10:44:42.580Z,9.00
2018-12-05T10:47:10.830Z,8.18
2018-12-05T10:49:39.043Z,8.25
2018-12-05T10:52:07.260Z,7.17
2018-12-05T10:54:35.547Z,7.42
2018-12-05T10:57:03.912Z,8.35
2018-12-05T10:59:32.070Z,7.90
2018-12-05T11:03:09.688Z,7.80
2018-12-05T11:05:43.446Z,7.23
2018-12-05T11:08:17.165Z,7.25
2018-12-05T11:10:50.907Z,7.25
2018-12-05T11:13:24.687Z,7.90
2018-12-05T11:15:58.152Z,7.42
2018-12-05T11:18:32.882Z,8.68
2018-12-05T11:21:06.780Z,7.60
2018-12-05T11:23:40.540Z,9.10
2018-12-05T11:26:12.892Z,7.50
2018-12-05T11:28:41.264Z,8.90
2018-12-05T11:31:09.547Z,7.97
2018-12-05T11:33:37.797Z,8.48
2018-12-05T11:36:06.689Z,8.15
2018-12-05T11:38:35.132Z,8.45
2018-12-05T11:41:03.450Z,7.40
2018-12-05T11:43:31.726Z,8.05
2018-12-05T11:46:00.216Z,9.35
2018-12-05T11:48:28.396Z,7.75
2018-12-05T11:50:56.998Z,7.20
2018-12-05T11:53:25.215Z,8.85
2018-12-05T11:55:53.415Z,8.65
2018-12-05T11:58:21.854Z,8.73
2018-12-05T12:00:50.223Z,6.37
2018-12-05T12:03:18.532Z,10.35
2018-12-05T12:05:46.722Z,9.25
2018-12-05T12:08:14.971Z,8.60
2018-12-05T12:10:43.294Z,8.35
2018-12-05T12:13:11.756Z,7.33
2018-12-05T12:15:40.134Z,9.68
2018-12-05T12:18:08.496Z,8.25
2018-12-05T12:20:36.847Z,8.45
2018-12-05T12:23:05.382Z,8.35
2018-12-05T12:25:33.653Z,9.30
2018-12-05T12:28:01.955Z,8.40
2018-12-05T12:30:30.199Z,7.78
2018-12-05T12:32:58.563Z,9.95
2018-12-05T12:35:27.116Z,8.70
2018-12-05T12:37:55.602Z,9.90
2018-12-05T12:40:23.993Z,10.28
2018-12-05T12:42:52.406Z,13.48
2018-12-05T12:45:20.676Z,10.82
2018-12-05T12:47:49.275Z,11.20
2018-12-05T12:50:17.709Z,9.55
2018-12-05T12:52:45.955Z,8.80
2018-12-05T12:55:14.298Z,9.60
2018-12-05T12:57:42.608Z,8.38
2018-12-05T13:00:10.961Z,9.18
2018-12-05T13:02:39.383Z,8.23
2018-12-05T13:05:07.798Z,8.35
2018-12-05T13:07:35.958Z,8.23
2018-12-05T13:10:04.622Z,9.08
2018-12-05T13:12:34.148Z,8.00
2018-12-05T13:15:02.654Z,8.58
2018-12-05T13:17:31.022Z,9.27
2018-12-05T13:19:59.332Z,8.65
2018-12-05T13:22:27.618Z,8.05
2018-12-05T13:24:55.995Z,8.55
2018-12-05T13:27:24.171Z,8.10
2018-12-05T13:29:52.610Z,9.23
2018-12-05T13:32:20.970Z,10.13
2018-12-05T13:34:49.534Z,8.67
2018-12-05T13:37:17.723Z,7.43
2018-12-05T13:39:46.079Z,8.40
2018-12-05T13:42:14.497Z,8.10
2018-12-05T13:44:42.735Z,10.25
2018-12-05T13:47:10.999Z,8.95
2018-12-05T13:49:39.251Z,8.70
2018-12-05T13:52:07.803Z,8.43
2018-12-05T13:54:35.990Z,9.37
2018-12-05T13:57:04.381Z,9.38
2018-12-05T13:59:32.560Z,9.73
2018-12-05T14:02:00.823Z,8.63
2018-12-05T14:04:29.097Z,9.07
2018-12-05T14:06:58.193Z,6.87
2018-12-05T14:09:26.500Z,8.50
2018-12-05T14:11:54.681Z,8.03
2018-12-05T14:14:22.972Z,9.30
2018-12-05T14:16:51.183Z,8.30
2018-12-05T14:19:19.491Z,8.90
2018-12-05T14:21:47.667Z,8.53
2018-12-05T14:24:15.980Z,9.93
2018-12-05T14:26:44.133Z,11.07
2018-12-05T14:29:12.397Z,9.50
2018-12-05T14:31:40.643Z,9.75
2018-12-05T14:34:08.903Z,9.65
2018-12-05T14:36:37.232Z,11.22
2018-12-05T14:39:06.948Z,10.32
2018-12-05T14:41:35.522Z,10.55
2018-12-05T14:44:03.943Z,13.03
2018-12-05T14:46:32.284Z,9.93
2018-12-05T14:49:00.471Z,8.95
2018-12-05T14:51:28.747Z,8.95
2018-12-05T14:53:57.101Z,9.13
2018-12-05T14:56:25.413Z,10.25
2018-12-05T14:58:53.777Z,9.40
2018-12-05T15:01:22.227Z,8.85
2018-12-05T15:03:50.410Z,9.75
2018-12-05T15:06:18.846Z,9.10
2018-12-05T15:08:47.103Z,9.15
2018-12-05T15:11:15.511Z,9.40
2018-12-05T15:13:43.803Z,8.13
2018-12-05T15:16:12.009Z,10.60
2018-12-05T15:18:40.203Z,9.98
2018-12-05T15:21:08.720Z,9.88
2018-12-05T15:23:37.111Z,11.33
2018-12-05T15:26:05.290Z,11.43
2018-12-05T15:28:33.554Z,10.93
2018-12-05T15:31:01.824Z,10.25
2018-12-05T15:33:30.154Z,11.20
2018-12-05T15:35:58.358Z,9.48
2018-12-05T15:38:26.606Z,9.80
2018-12-05T15:40:54.935Z,10.32
2018-12-05T15:43:23.245Z,11.28
2018-12-05T15:45:51.548Z,12.37
2018-12-05T15:48:20.757Z,9.90
2018-12-05T15:50:49.434Z,11.40
2018-12-05T15:53:24.111Z,11.57
2018-12-05T15:55:52.599Z,10.35
2018-12-05T15:58:20.831Z,10.40
2018-12-05T16:00:49.106Z,10.55
2018-12-05T16:03:17.323Z,13.65
2018-12-05T16:05:45.611Z,13.45
2018-12-05T16:08:13.957Z,13.30
2018-12-05T16:10:42.240Z,11.97
2018-12-05T16:13:10.760Z,10.90
2018-12-05T16:15:39.094Z,8.70
2018-12-05T16:18:07.322Z,10.35
2018-12-05T16:20:35.622Z,10.23
2018-12-05T16:23:04.018Z,9.40
2018-12-05T16:25:32.333Z,11.00
2018-12-05T16:28:00.534Z,9.98
2018-12-05T16:30:28.744Z,9.10
2018-12-05T16:32:57.015Z,8.78
2018-12-05T16:35:25.261Z,9.40
2018-12-05T16:37:53.502Z,10.00
2018-12-05T16:40:21.832Z,9.73
2018-12-05T16:42:50.231Z,9.90
2018-12-05T16:45:18.458Z,9.10
2018-12-05T16:47:46.748Z,10.70
2018-12-05T16:50:14.965Z,10.90
2018-12-05T16:52:42.956Z,11.15
2018-12-05T16:55:11.242Z,10.65
2018-12-05T16:57:39.512Z,9.95
2018-12-05T17:00:09.928Z,10.08
2018-12-05T17:02:38.339Z,7.92
2018-12-05T17:05:06.720Z,11.15
2018-12-05T17:07:35.063Z,9.63
2018-12-05T17:10:03.444Z,11.55
2018-12-05T17:12:31.702Z,9.70
2018-12-05T17:15:00.007Z,11.55
2018-12-05T17:17:28.242Z,10.45
2018-12-05T17:19:56.508Z,9.55
2018-12-05T17:22:24.723Z,10.50
2018-12-05T17:24:52.993Z,9.73
2018-12-05T17:27:21.281Z,9.73
2018-12-05T17:29:49.578Z,10.60
2018-12-05T17:32:18.258Z,10.28
2018-12-05T17:34:46.433Z,13.25
2018-12-05T17:37:14.746Z,14.20
2018-12-05T17:39:42.988Z,17.37
2018-12-05T17:42:11.340Z,10.15
2018-12-05T17:44:39.583Z,12.05
2018-12-05T17:47:07.780Z,9.43
2018-12-05T17:49:36.135Z,9.90
2018-12-05T17:52:04.324Z,11.12
2018-12-05T17:54:32.691Z,11.90
2018-12-05T17:57:00.979Z,9.78
2018-12-05T17:59:29.355Z,12.82
2018-12-05T18:01:57.636Z,11.80
2018-12-05T18:04:25.827Z,12.03
2018-12-05T18:06:54.055Z,10.50
2018-12-05T18:09:22.281Z,9.58
2018-12-05T18:11:50.740Z,11.25
2018-12-05T18:14:19.058Z,10.90
2018-12-05T18:16:47.381Z,9.75
2018-12-05T18:19:15.539Z,11.18
2018-12-05T18:21:43.789Z,11.85
2018-12-05T18:24:12.227Z,10.18
2018-12-05T18:26:40.563Z,14.20
2018-12-05T18:29:08.942Z,21.73
2018-12-05T18:31:37.266Z,15.65
2018-12-05T18:34:05.628Z,11.53
2018-12-05T18:36:33.975Z,11.22
2018-12-05T18:39:02.216Z,11.03
2018-12-05T18:41:30.468Z,11.90
2018-12-05T18:43:58.980Z,11.50
2018-12-05T18:46:27.374Z,10.23
2018-12-05T18:48:55.605Z,11.90
2018-12-05T18:51:23.963Z,10.43
2018-12-05T18:53:52.287Z,10.58
2018-12-05T18:56:20.541Z,11.15
2018-12-05T18:58:48.903Z,11.18
2018-12-05T19:01:17.211Z,30.55
2018-12-05T19:03:45.558Z,17.37
2018-12-05T19:06:13.902Z,11.50
2018-12-05T19:08:42.073Z,11.55
2018-12-05T19:11:10.442Z,9.35
2018-12-05T19:13:44.175Z,11.33
2018-12-05T19:16:12.739Z,10.78
2018-12-05T19:18:41.132Z,11.88
2018-12-05T19:21:14.040Z,11.78
2018-12-05T19:23:42.220Z,13.00
2018-12-05T19:26:10.545Z,9.88
2018-12-05T19:28:38.945Z,13.00
2018-12-05T19:31:07.301Z,9.85
2018-12-05T19:33:35.561Z,11.85
2018-12-05T19:36:03.804Z,10.70
2018-12-05T19:38:32.199Z,13.48
2018-12-05T19:41:00.620Z,11.05
2018-12-05T19:43:28.795Z,13.10
2018-12-05T19:45:57.086Z,11.68
2018-12-05T19:48:25.365Z,9.70
2018-12-05T19:50:53.548Z,11.05
2018-12-05T19:53:21.865Z,11.38
2018-12-05T19:55:50.694Z,12.03
2018-12-05T19:58:18.893Z,12.55
2018-12-05T20:00:47.123Z,12.07
2018-12-05T20:03:15.850Z,10.88
2018-12-05T20:05:44.304Z,10.25
2018-12-05T20:08:12.503Z,10.28
2018-12-05T20:10:40.780Z,10.50
2018-12-05T20:13:09.202Z,10.80
2018-12-05T20:15:39.031Z,10.40
2018-12-05T20:18:07.238Z,11.75
2018-12-05T20:20:36.000Z,10.93
2018-12-05T20:23:04.363Z,12.78
2018-12-05T20:25:32.659Z,11.48
2018-12-05T20:28:00.844Z,10.90
2018-12-05T20:30:29.995Z,11.40
2018-12-05T20:32:58.198Z,12.40
2018-12-05T20:36:04.795Z,11.50
2018-12-05T20:38:33.318Z,9.73
2018-12-05T20:41:02.393Z,11.35
2018-12-05T20:43:30.927Z,10.30
2018-12-05T20:45:59.202Z,11.03
2018-12-05T20:48:27.368Z,9.73
2018-12-05T20:50:55.778Z,10.32
2018-12-05T20:53:23.935Z,11.50
2018-12-05T20:55:52.199Z,12.82
2018-12-05T20:58:20.426Z,11.28
2018-12-05T21:00:48.774Z,11.73
2018-12-05T21:03:17.023Z,13.07
2018-12-05T21:05:45.452Z,12.50
2018-12-05T21:08:13.829Z,12.50
2018-12-05T21:10:42.214Z,11.85
2018-12-05T21:13:10.391Z,10.70
2018-12-05T21:15:38.633Z,12.03
2018-12-05T21:18:06.914Z,12.00
2018-12-05T21:20:35.169Z,9.60
2018-12-05T21:23:03.456Z,10.83
2018-12-05T21:25:31.740Z,10.72
2018-12-05T21:28:00.032Z,12.80
2018-12-05T21:30:28.472Z,11.07
2018-12-05T21:32:56.767Z,12.50
2018-12-05T21:35:25.014Z,10.98
2018-12-05T21:37:53.321Z,11.08
2018-12-05T21:40:21.657Z,11.28
2018-12-05T21:42:49.937Z,11.50
2018-12-05T21:45:18.087Z,12.10
2018-12-05T21:47:46.279Z,10.80
2018-12-05T21:50:14.534Z,11.15
2018-12-05T21:52:42.808Z,11.00
2018-12-05T21:55:11.015Z,11.75
2018-12-05T21:57:39.194Z,11.87
2018-12-05T22:00:10.535Z,11.20
2018-12-05T22:02:38.782Z,10.93
2018-12-05T22:05:07.143Z,12.85
2018-12-05T22:07:35.441Z,10.45
2018-12-05T22:10:05.475Z,11.90
2018-12-05T22:12:34.003Z,10.70
2018-12-05T22:15:02.178Z,11.78
2018-12-05T22:17:30.583Z,10.50
2018-12-05T22:19:58.777Z,10.63
2018-12-05T22:22:27.123Z,10.00
2018-12-05T22:24:55.318Z,12.13
2018-12-05T22:27:23.664Z,10.53
2018-12-05T22:29:51.887Z,11.87
2018-12-05T22:32:20.172Z,12.25
2018-12-05T22:34:48.383Z,11.60
2018-12-05T22:37:16.666Z,9.98
2018-12-05T22:39:44.871Z,12.40
2018-12-05T22:42:13.087Z,10.53
2018-12-05T22:44:41.356Z,10.25
2018-12-05T22:47:09.623Z,10.50
2018-12-05T22:49:37.890Z,10.93
2018-12-05T22:52:06.124Z,11.27
2018-12-05T22:57:13.817Z,11.18
2018-12-05T22:59:42.464Z,10.85
2018-12-05T23:02:10.819Z,10.25
2018-12-05T23:04:39.098Z,11.22
2018-12-05T23:07:07.369Z,10.67
2018-12-05T23:09:35.666Z,11.17
2018-12-05T23:12:04.016Z,10.70
2018-12-05T23:14:32.390Z,10.23
2018-12-05T23:17:00.715Z,10.82
2018-12-05T23:19:28.905Z,11.35
2018-12-05T23:21:57.127Z,11.17
2018-12-05T23:24:25.387Z,10.90
2018-12-05T23:26:54.892Z,11.03
2018-12-05T23:29:23.245Z,9.47
2018-12-05T23:31:51.441Z,11.60
2018-12-05T23:34:19.624Z,10.97
2018-12-05T23:36:47.794Z,11.50
2018-12-05T23:39:16.114Z,11.90
2018-12-05T23:41:44.371Z,11.65
2018-12-05T23:44:12.565Z,11.57
2018-12-05T23:46:40.738Z,10.10
2018-12-05T23:49:08.920Z,12.33
2018-12-05T23:51:37.250Z,12.23
2018-12-05T23:54:05.450Z,10.77
2018-12-05T23:56:33.931Z,10.63
2018-12-05T23:59:02.131Z,10.40
